createdAt,value
2023-07-04T00:00:51.486Z,16.22
2023-07-04T00:03:37.452Z,16.21
2023-07-04T00:06:31.266Z,16.20
2023-07-04T00:09:23.243Z,16.12
2023-07-04T00:12:09.543Z,16.07
2023-07-04T00:15:01.255Z,16.03
2023-07-04T00:17:46.080Z,15.94
2023-07-04T00:20:41.253Z,15.94
2023-07-04T00:23:35.311Z,15.99
2023-07-04T00:26:22.106Z,15.96
2023-07-04T00:29:13.249Z,15.96
2023-07-04T00:32:06.270Z,15.92
2023-07-04T00:34:57.271Z,15.91
2023-07-04T00:37:51.298Z,15.82
2023-07-04T00:40:36.042Z,15.73
2023-07-04T00:43:27.279Z,15.68
2023-07-04T00:46:22.303Z,15.74
2023-07-04T00:49:25.282Z,15.83
2023-07-04T00:52:34.018Z,15.80
2023-07-04T00:55:26.281Z,15.71
2023-07-04T00:58:11.489Z,15.72
2023-07-04T01:01:03.271Z,15.71
2023-07-04T01:03:55.306Z,15.72
2023-07-04T01:06:55.260Z,15.68
2023-07-04T01:09:51.282Z,15.73
2023-07-04T01:12:37.638Z,15.72
2023-07-04T01:15:31.309Z,15.72
2023-07-04T01:18:16.379Z,15.77
2023-07-04T01:21:09.279Z,15.75
2023-07-04T01:24:06.366Z,15.67
2023-07-04T01:26:58.277Z,15.57
2023-07-04T01:29:44.550Z,15.56
2023-07-04T01:32:36.330Z,15.55
2023-07-04T01:35:23.663Z,15.58
2023-07-04T01:38:15.279Z,15.58
2023-07-04T01:41:00.018Z,15.54
2023-07-04T01:44:04.289Z,15.55
2023-07-04T01:46:49.172Z,15.45
2023-07-04T01:49:40.286Z,15.46
2023-07-04T01:52:26.808Z,15.39
2023-07-04T01:55:20.296Z,15.23
2023-07-04T01:58:05.069Z,15.16
2023-07-04T02:00:56.352Z,15.24
2023-07-04T02:03:41.540Z,15.26
2023-07-04T02:06:33.323Z,15.23
2023-07-04T02:09:18.312Z,15.19
2023-07-04T02:12:10.307Z,15.15
2023-07-04T02:15:02.376Z,15.16
2023-07-04T02:17:55.305Z,15.07
2023-07-04T02:20:40.212Z,15.12
2023-07-04T02:23:31.312Z,15.13
2023-07-04T02:26:22.308Z,15.08
2023-07-04T02:29:07.444Z,15.05
2023-07-04T02:31:59.301Z,15.04
2023-07-04T02:34:44.295Z,15.01
2023-07-04T02:37:35.309Z,15.00
2023-07-04T02:40:20.175Z,15.00
2023-07-04T02:43:11.305Z,15.00
2023-07-04T02:46:04.963Z,14.90
2023-07-04T02:48:56.321Z,14.77
2023-07-04T02:51:41.496Z,14.67
2023-07-04T02:54:33.321Z,14.64
2023-07-04T02:57:25.334Z,14.64
2023-07-04T03:00:17.361Z,14.62
2023-07-04T03:03:02.554Z,14.67
2023-07-04T03:05:54.332Z,14.65
2023-07-04T03:08:39.435Z,14.56
2023-07-04T03:11:31.344Z,14.45
2023-07-04T03:14:16.100Z,14.44
2023-07-04T03:17:07.384Z,14.35
2023-07-04T03:19:52.998Z,14.25
2023-07-04T03:22:46.336Z,14.16
2023-07-04T03:25:31.393Z,14.16
2023-07-04T03:28:22.331Z,14.12
2023-07-04T03:31:07.286Z,14.11
2023-07-04T03:33:58.335Z,14.18
2023-07-04T03:36:43.460Z,14.14
2023-07-04T03:39:35.343Z,14.23
2023-07-04T03:42:20.209Z,14.20
2023-07-04T03:45:20.338Z,14.22
2023-07-04T03:48:11.572Z,14.22
2023-07-04T03:51:03.313Z,14.15
2023-07-04T03:53:49.819Z,14.19
2023-07-04T03:56:41.324Z,14.20
2023-07-04T03:59:32.325Z,14.22
2023-07-04T04:02:23.384Z,14.18
2023-07-04T04:05:08.900Z,14.21
2023-07-04T04:08:00.372Z,14.21
2023-07-04T04:10:45.284Z,14.20
2023-07-04T04:13:37.438Z,14.24
2023-07-04T04:16:23.257Z,14.29
2023-07-04T04:19:22.342Z,14.34
2023-07-04T04:22:20.351Z,14.32
2023-07-04T04:25:16.354Z,14.36
2023-07-04T04:28:08.327Z,14.32
2023-07-04T04:30:53.621Z,14.35
2023-07-04T04:33:45.344Z,14.38
2023-07-04T04:36:31.440Z,14.39
2023-07-04T04:39:23.344Z,14.44
2023-07-04T04:42:15.470Z,14.66
2023-07-04T04:45:15.537Z,14.72
2023-07-04T04:48:07.343Z,14.74
2023-07-04T04:50:59.343Z,14.76
2023-07-04T04:53:49.474Z,14.76
2023-07-04T04:56:41.380Z,14.74
2023-07-04T04:59:26.498Z,14.79
2023-07-04T05:02:18.327Z,14.84
2023-07-04T05:05:03.598Z,14.92
2023-07-04T05:07:56.387Z,15.05
2023-07-04T05:10:54.985Z,15.07
2023-07-04T05:13:48.400Z,15.09
2023-07-04T05:16:34.010Z,15.14
2023-07-04T05:19:25.430Z,15.22
2023-07-04T05:22:10.603Z,15.24
2023-07-04T05:25:04.378Z,15.37
2023-07-04T05:27:58.346Z,15.34
2023-07-04T05:30:49.502Z,15.43
2023-07-04T05:33:35.579Z,15.54
2023-07-04T05:36:33.405Z,15.48
2023-07-04T05:39:18.096Z,15.54
2023-07-04T05:42:09.366Z,15.49
2023-07-04T05:45:01.398Z,15.68
2023-07-04T05:47:52.413Z,15.80
2023-07-04T05:50:37.178Z,15.85
2023-07-04T05:53:31.359Z,15.86
2023-07-04T05:56:25.983Z,15.97
2023-07-04T05:59:17.359Z,16.06
2023-07-04T06:02:02.803Z,16.50
2023-07-04T06:04:54.486Z,16.82
2023-07-04T06:07:39.764Z,16.87
2023-07-04T06:10:31.377Z,17.00
2023-07-04T06:13:16.240Z,16.69
2023-07-04T06:16:10.448Z,16.92
2023-07-04T06:18:55.451Z,16.78
2023-07-04T06:21:47.397Z,16.80
2023-07-04T06:24:39.368Z,16.99
2023-07-04T06:27:32.408Z,17.23
2023-07-04T06:30:17.179Z,17.13
2023-07-04T06:33:13.373Z,17.04
2023-07-04T06:35:58.645Z,16.88
2023-07-04T06:38:50.384Z,17.06
2023-07-04T06:41:35.559Z,17.40
2023-07-04T06:44:27.388Z,17.19
2023-07-04T06:47:12.581Z,17.35
2023-07-04T06:50:04.389Z,17.32
2023-07-04T06:52:50.195Z,17.49
2023-07-04T06:55:41.398Z,17.51
2023-07-04T06:58:32.400Z,17.25
2023-07-04T07:01:25.423Z,17.46
2023-07-04T07:04:19.394Z,17.63
2023-07-04T07:07:12.406Z,17.22
2023-07-04T07:09:57.315Z,17.41
2023-07-04T07:12:48.383Z,17.49
2023-07-04T07:15:33.153Z,17.55
2023-07-04T07:18:25.411Z,17.53
2023-07-04T07:21:12.630Z,17.72
2023-07-04T07:24:08.395Z,18.09
2023-07-04T07:26:54.896Z,18.15
2023-07-04T07:29:49.315Z,19.21
2023-07-04T07:32:34.062Z,19.60
2023-07-04T07:35:25.393Z,19.13
2023-07-04T07:38:10.310Z,18.81
2023-07-04T07:41:02.402Z,18.38
2023-07-04T07:43:54.384Z,18.99
2023-07-04T07:46:46.000Z,19.37
2023-07-04T07:49:37.398Z,20.96
2023-07-04T07:52:23.216Z,22.44
2023-07-04T07:55:15.460Z,22.72
2023-07-04T07:58:07.393Z,23.91
2023-07-04T08:00:52.470Z,25.52
2023-07-04T08:03:44.567Z,26.63
2023-07-04T08:06:31.331Z,26.14
2023-07-04T08:09:24.428Z,25.13
2023-07-04T08:12:16.439Z,23.60
2023-07-04T08:15:01.761Z,20.85
2023-07-04T08:17:53.423Z,21.56
2023-07-04T08:20:44.425Z,23.41
2023-07-04T08:23:36.435Z,22.89
2023-07-04T08:26:24.279Z,24.55
2023-07-04T08:29:16.426Z,25.50
2023-07-04T08:32:01.519Z,25.55
2023-07-04T08:34:54.420Z,26.49
2023-07-04T08:37:39.241Z,25.32
2023-07-04T08:40:30.430Z,24.93
2023-07-04T08:43:20.280Z,24.59
2023-07-04T08:46:20.464Z,25.99
2023-07-04T08:49:08.725Z,26.54
2023-07-04T08:52:15.439Z,27.12
2023-07-04T08:55:00.564Z,24.82
2023-07-04T08:58:06.448Z,27.19
2023-07-04T09:00:53.165Z,28.47
2023-07-04T09:04:04.461Z,27.74
2023-07-04T09:07:17.437Z,27.12
2023-07-04T09:10:30.453Z,25.79
2023-07-04T09:13:33.527Z,26.44
2023-07-04T09:16:37.503Z,27.07
2023-07-04T09:19:29.462Z,26.25
2023-07-04T09:22:15.065Z,26.20
2023-07-04T09:25:06.469Z,27.28
2023-07-04T09:27:51.337Z,26.30
2023-07-04T09:30:46.790Z,28.25
2023-07-04T09:33:43.459Z,27.22
2023-07-04T09:36:33.497Z,26.13
2023-07-04T09:39:25.464Z,28.48
2023-07-04T09:42:20.957Z,26.48
2023-07-04T09:45:30.521Z,27.37
2023-07-04T09:48:31.451Z,27.98
2023-07-04T09:51:38.470Z,26.52
2023-07-04T09:54:29.462Z,26.95
2023-07-04T09:57:28.475Z,26.39
2023-07-04T10:00:27.469Z,24.49
2023-07-04T10:03:13.933Z,25.71
2023-07-04T10:06:05.484Z,26.14
2023-07-04T10:08:56.159Z,26.30
2023-07-04T10:11:47.484Z,26.99
2023-07-04T10:14:42.473Z,27.68
2023-07-04T10:17:34.038Z,26.97
2023-07-04T10:20:25.475Z,26.66
2023-07-04T10:23:16.487Z,27.38
2023-07-04T10:26:08.481Z,28.46
2023-07-04T10:28:59.498Z,27.73
2023-07-04T10:31:45.746Z,27.70
2023-07-04T10:34:39.470Z,27.18
2023-07-04T10:37:35.526Z,27.36
2023-07-04T10:40:28.497Z,27.06
2023-07-04T10:43:28.495Z,27.82
2023-07-04T10:46:34.527Z,27.42
2023-07-04T10:49:22.670Z,28.25
2023-07-04T10:52:22.496Z,27.12
2023-07-04T10:55:26.537Z,27.30
2023-07-04T11:11:54.498Z,29.06
2023-07-04T11:14:47.539Z,28.40
2023-07-04T11:17:43.538Z,26.18
2023-07-04T11:20:58.535Z,25.10
2023-07-04T11:24:01.508Z,25.91
2023-07-04T11:26:50.319Z,26.33
2023-07-04T11:29:55.527Z,24.83
2023-07-04T11:32:40.590Z,24.57
2023-07-04T11:35:39.532Z,25.95
2023-07-04T11:38:24.621Z,25.32
2023-07-04T11:41:16.535Z,24.94
2023-07-04T11:44:17.550Z,24.77
2023-07-04T11:47:14.583Z,24.77
2023-07-04T11:50:08.791Z,24.56
2023-07-04T11:53:04.595Z,24.51
2023-07-04T11:56:33.524Z,24.98
2023-07-04T11:59:24.510Z,24.79
2023-07-04T12:02:29.911Z,24.91
2023-07-04T12:05:39.513Z,24.08
2023-07-04T12:08:55.537Z,24.23
2023-07-04T12:12:03.539Z,23.89
2023-07-04T12:15:09.581Z,24.82
2023-07-04T12:18:05.576Z,25.19
2023-07-04T12:20:51.188Z,25.15
2023-07-04T12:23:44.540Z,24.16
2023-07-04T12:26:31.546Z,24.64
2023-07-04T12:29:24.124Z,24.54
2023-07-04T12:32:29.728Z,24.38
2023-07-04T12:35:27.542Z,23.88
2023-07-04T12:38:12.687Z,23.96
2023-07-04T12:41:05.550Z,24.12
2023-07-04T12:49:43.746Z,24.42
2023-07-04T12:52:41.569Z,24.47
2023-07-04T12:55:32.661Z,24.31
2023-07-04T12:58:25.718Z,24.46
2023-07-04T13:01:12.730Z,24.38
2023-07-04T13:04:23.553Z,24.47
2023-07-04T13:07:08.444Z,24.58
2023-07-04T13:10:06.545Z,24.80
2023-07-04T13:12:58.625Z,24.54
2023-07-04T13:15:50.650Z,24.38
2023-07-04T13:18:42.378Z,24.07
2023-07-04T13:21:46.569Z,23.99
2023-07-04T13:27:32.581Z,24.51
2023-07-04T13:30:32.500Z,24.76
2023-07-04T13:33:41.612Z,24.76
2023-07-04T13:36:45.587Z,24.46
2023-07-04T13:42:25.564Z,24.39
2023-07-04T13:45:13.732Z,24.14
2023-07-04T13:48:05.573Z,24.07
2023-07-04T13:50:50.643Z,24.18
2023-07-04T13:53:41.588Z,24.31
2023-07-04T13:56:27.110Z,24.05
2023-07-04T13:59:18.622Z,24.14
2023-07-04T14:05:40.877Z,23.65
2023-07-04T14:08:10.589Z,23.85
2023-07-04T14:11:10.598Z,24.05
2023-07-04T14:16:20.827Z,23.85
2023-07-04T14:17:30.401Z,24.21
2023-07-04T14:20:24.872Z,24.42
2023-07-04T14:23:10.264Z,24.16
2023-07-04T14:26:01.598Z,24.42
2023-07-04T14:28:46.468Z,24.66
2023-07-04T14:31:38.663Z,24.62
2023-07-04T14:34:30.590Z,24.53
2023-07-04T14:37:21.618Z,24.42
2023-07-04T14:40:22.100Z,24.22
2023-07-04T14:43:18.609Z,24.52
2023-07-04T14:46:07.392Z,24.26
2023-07-04T14:48:59.623Z,24.13
2023-07-04T14:51:50.605Z,23.94
2023-07-04T14:54:42.621Z,24.12
2023-07-04T14:57:34.606Z,24.15
2023-07-04T15:00:29.684Z,24.23
2023-07-04T15:03:21.741Z,24.17
2023-07-04T15:06:08.233Z,24.16
2023-07-04T15:08:59.627Z,24.08
2023-07-04T15:11:50.611Z,23.75
2023-07-04T15:14:41.660Z,23.83
2023-07-04T15:17:32.660Z,23.72
2023-07-04T15:20:17.612Z,23.72
2023-07-04T15:23:09.653Z,23.67
2023-07-04T15:26:03.853Z,24.01
2023-07-04T15:29:06.623Z,24.17
2023-07-04T15:31:52.683Z,24.12
2023-07-04T15:34:46.679Z,24.38
2023-07-04T15:37:31.652Z,24.29
2023-07-04T15:40:23.623Z,23.89
2023-07-04T15:43:08.708Z,24.06
2023-07-04T15:46:02.674Z,23.98
2023-07-04T15:48:47.785Z,24.06
2023-07-04T15:51:39.682Z,24.03
2023-07-04T15:54:26.167Z,23.92
2023-07-04T15:57:17.624Z,23.77
2023-07-04T16:00:02.544Z,23.74
2023-07-04T16:02:53.716Z,23.69
2023-07-04T16:05:50.849Z,23.61
2023-07-04T16:08:38.475Z,23.66
2023-07-04T16:11:30.635Z,23.76
2023-07-04T16:14:21.839Z,23.75
2023-07-04T16:17:13.625Z,23.58
2023-07-04T16:20:04.655Z,23.53
2023-07-04T16:22:56.646Z,23.51
2023-07-04T16:25:42.730Z,23.54
2023-07-04T16:28:34.651Z,23.62
2023-07-04T16:31:25.682Z,23.49
2023-07-04T16:34:16.661Z,23.43
2023-07-04T16:37:01.564Z,23.09
2023-07-04T16:39:52.662Z,22.96
2023-07-04T16:42:37.669Z,22.98
2023-07-04T16:45:28.762Z,22.95
2023-07-04T16:48:13.987Z,22.83
2023-07-04T16:51:06.660Z,22.91
2023-07-04T16:53:51.465Z,23.01
2023-07-04T16:56:42.655Z,23.08
2023-07-04T16:59:33.667Z,23.30
2023-07-04T17:02:25.721Z,23.38
2023-07-04T17:05:10.672Z,23.51
2023-07-04T17:08:01.662Z,23.22
2023-07-04T17:10:50.473Z,23.13
2023-07-04T17:13:42.709Z,23.06
2023-07-04T17:16:34.707Z,23.12
2023-07-04T17:19:25.683Z,23.04
2023-07-04T17:22:16.665Z,23.00
2023-07-04T17:25:16.542Z,22.93
2023-07-04T17:28:01.686Z,22.97
2023-07-04T17:30:53.685Z,23.06
2023-07-04T17:33:45.676Z,23.10
2023-07-04T17:36:32.448Z,23.08
2023-07-04T17:39:23.686Z,23.12
2023-07-04T17:42:14.683Z,22.87
2023-07-04T17:45:06.705Z,22.64
2023-07-04T17:47:52.482Z,22.83
2023-07-04T17:50:43.676Z,22.89
2023-07-04T17:53:28.582Z,22.90
2023-07-04T17:56:24.679Z,22.95
2023-07-04T17:59:11.383Z,22.89
2023-07-04T18:02:02.682Z,22.89
2023-07-04T18:04:47.755Z,22.90
2023-07-04T18:07:39.693Z,22.80
2023-07-04T18:10:24.517Z,22.76
2023-07-04T18:13:22.712Z,22.60
2023-07-04T18:16:21.697Z,22.48
2023-07-04T18:19:13.698Z,22.38
2023-07-04T18:21:58.648Z,22.27
2023-07-04T18:24:52.703Z,22.25
2023-07-04T18:27:38.008Z,22.23
2023-07-04T18:30:29.710Z,22.17
2023-07-04T18:33:15.438Z,22.15
2023-07-04T18:36:06.685Z,22.16
2023-07-04T18:38:51.967Z,22.18
2023-07-04T18:41:45.690Z,22.24
2023-07-04T18:44:36.704Z,22.23
2023-07-04T18:47:27.736Z,22.24
2023-07-04T18:50:18.711Z,22.26
2023-07-04T18:53:03.965Z,22.14
2023-07-04T18:55:55.701Z,22.10
2023-07-04T18:58:42.868Z,22.13
2023-07-04T19:01:36.761Z,22.07
2023-07-04T19:04:21.739Z,21.85
2023-07-04T19:07:12.703Z,21.73
2023-07-04T19:09:58.437Z,21.70
2023-07-04T19:12:49.709Z,21.69
2023-07-04T19:15:41.769Z,21.63
2023-07-04T19:18:33.793Z,21.61
2023-07-04T19:21:19.429Z,21.55
2023-07-04T19:24:11.733Z,21.61
2023-07-04T19:26:57.161Z,21.63
2023-07-04T19:29:49.747Z,21.46
2023-07-04T19:32:40.735Z,21.19
2023-07-04T19:35:25.607Z,20.84
2023-07-04T19:38:17.719Z,20.64
2023-07-04T19:41:11.729Z,20.52
2023-07-04T19:43:56.419Z,20.38
2023-07-04T19:46:48.020Z,20.15
2023-07-04T19:49:33.222Z,20.17
2023-07-04T19:52:24.725Z,19.85
2023-07-04T19:55:09.511Z,19.73
2023-07-04T19:58:01.733Z,19.66
2023-07-04T20:00:47.363Z,19.84
2023-07-04T20:03:40.860Z,19.97
2023-07-04T20:06:26.416Z,19.86
2023-07-04T20:09:17.758Z,19.79
2023-07-04T20:12:08.734Z,19.74
2023-07-04T20:14:59.948Z,19.63
2023-07-04T20:17:51.780Z,19.70
2023-07-04T20:20:37.660Z,19.74
2023-07-04T20:23:28.746Z,19.71
2023-07-04T20:26:21.913Z,19.75
2023-07-04T20:29:07.080Z,19.64
2023-07-04T20:31:58.823Z,19.57
2023-07-04T20:34:44.120Z,19.64
2023-07-04T20:37:35.761Z,19.64
2023-07-04T20:40:20.553Z,19.59
2023-07-04T20:43:16.753Z,19.47
2023-07-04T20:46:01.777Z,19.36
2023-07-04T20:48:53.755Z,19.22
2023-07-04T20:51:38.564Z,19.17
2023-07-04T20:54:29.773Z,19.17
2023-07-04T20:57:14.844Z,19.15
2023-07-04T21:00:07.758Z,19.21
2023-07-04T21:02:52.490Z,19.20
2023-07-04T21:05:44.748Z,19.30
2023-07-04T21:08:29.859Z,19.38
2023-07-04T21:11:21.753Z,19.39
2023-07-04T21:14:20.766Z,19.32
2023-07-04T21:17:18.909Z,19.42
2023-07-04T21:20:14.768Z,19.37
2023-07-04T21:23:06.763Z,19.32
2023-07-04T21:26:03.774Z,19.23
2023-07-04T21:28:48.574Z,19.15
2023-07-04T21:31:39.776Z,19.06
2023-07-04T21:34:24.876Z,18.96
2023-07-04T21:37:16.773Z,18.94
2023-07-04T21:40:02.163Z,18.92
2023-07-04T21:42:53.762Z,18.92
2023-07-04T21:45:40.649Z,18.86
2023-07-04T21:48:36.793Z,18.78
2023-07-04T21:51:21.552Z,18.66
2023-07-04T21:54:12.780Z,18.68
2023-07-04T21:57:03.766Z,18.69
2023-07-04T21:59:49.178Z,18.65
2023-07-04T22:02:40.927Z,18.68
2023-07-04T22:05:32.784Z,18.70
2023-07-04T22:08:19.043Z,18.67
2023-07-04T22:11:10.788Z,18.65
2023-07-04T22:14:01.963Z,18.67
2023-07-04T22:16:53.802Z,18.67
2023-07-04T22:19:45.794Z,18.56
2023-07-04T22:22:37.795Z,18.52
2023-07-04T22:25:29.825Z,18.48
2023-07-04T22:28:20.790Z,18.43
2023-07-04T22:31:08.459Z,18.41
2023-07-04T22:34:12.788Z,18.37
2023-07-04T22:37:03.801Z,18.33
2023-07-04T22:39:48.616Z,18.26
2023-07-04T22:42:39.792Z,18.02
2023-07-04T22:45:24.496Z,18.24
2023-07-04T22:48:15.794Z,18.10
2023-07-04T22:51:02.545Z,18.11
2023-07-04T22:53:56.822Z,18.16
2023-07-04T22:56:47.798Z,18.19
2023-07-04T22:59:32.664Z,18.21
2023-07-04T23:02:23.855Z,18.17
2023-07-04T23:05:09.086Z,18.10
2023-07-04T23:08:00.811Z,18.00
2023-07-04T23:10:45.585Z,17.95
2023-07-04T23:13:36.872Z,17.97
2023-07-04T23:16:29.026Z,18.01
2023-07-04T23:19:20.810Z,17.94
2023-07-04T23:22:05.656Z,17.92
2023-07-04T23:24:59.845Z,17.66
2023-07-04T23:27:53.814Z,17.70
2023-07-04T23:30:44.821Z,17.85
2023-07-04T23:33:29.616Z,17.73
2023-07-04T23:36:23.821Z,17.88
2023-07-04T23:39:14.816Z,17.76
2023-07-04T23:41:59.863Z,17.83
2023-07-04T23:44:51.811Z,17.87
2023-07-04T23:47:36.676Z,17.81
2023-07-04T23:50:29.821Z,17.84
2023-07-04T23:53:21.812Z,17.83
2023-07-04T23:56:07.462Z,17.76
2023-07-04T23:58:58.818Z,17.83
